Portada
METAR-TAF:

METAR-TAF

Aeropuertos :

Aeropuerto Internacional Mataveri

Isla de Pascua, Chile

latitud: 27-09S, longitud: 109-25W, altitud: 51 m

Observación

El informe se hizo hace 52 minutos, a las 16:00 UTC
Viento 14 kt del noroeste
Temperatura 24°C
Humedad 78%
Presión 1023 hPa
Visibilidad 10 km o más
Escasas nubes a una altura de 1200 ft
Nubes dispersas a una altura de 2000 ft
Cielo nuboso a una altura de 4000 ft

METAR: SCIP 131600Z 32014KT 9999 FEW012 SCT020 BKN040 24/20 Q1023 NOSIG

Hora: 11:52 (16:52 UTC)

Pronóstico

El informe se hizo hace 6 horas y 2 minutos, a las 10:50 UTC
Pronóstico válido del 13 a las 12 UTC al 14 a las 12 UTC
Viento 12 kt del noroeste
Visibilidad 10 km o más
Nubes dispersas a una altura de 2000 ft
Nubes dispersas a una altura de 4000 ft
Evolucionando progresivamente
del 13 a las 23 UTC al 14 a las 01 UTC
Viento 7 kt del noroeste

TAF: SCIP 131050Z 1312/1412 32012KT 9999 SCT020 SCT040 TX26/1320Z TN21/1410Z BECMG 1323/1401 32007KT

Observaciones y pronósticos meteorológicos de más de 4000 aeropuertos (mensajes METAR y TAF).

Los puntos amarillos y rojos representan las estaciones disponibles.

Ponga el ratón en el punto deseado para ver el nombre de la estación.

Haga clic para ver las observaciones y los pronósticos meteorológicos.

Para cambiar el mapa : haga clic en los botones verdes con una cruz de color negro para hacer un zoom, en el botón verde con un guión para alejar o en las flechas verdes para mapas adyacentes.


METAR-TAF: